Time;durP1;ratioP1;P1;durP2;ratioP2;P2;SDS_P1;SDS_P2;PMS_P1;PMS_P2;Temp;Humidity;BMP_temperature;BMP_pressure;BME280_temperature;BME280_humidity;BME280_pressure;Samples;Min_cycle;Max_cycle;Signal;HPM_P1;HPM_P2
2021/12/23 00:00:35;;;;;;;39.33;26.40;;;-1.10;99.90;;;;;;5071123;28;20039;-60
2021/12/23 00:03:01;;;;;;;33.97;23.60;;;-1.10;99.90;;;;;;5071158;28;20051;-59
2021/12/23 00:05:26;;;;;;;36.73;26.10;;;-1.10;99.90;;;;;;5070772;28;20127;-59
2021/12/23 00:07:52;;;;;;;35.20;23.70;;;-1.10;99.90;;;;;;5071369;28;20075;-60
2021/12/23 00:10:18;;;;;;;35.17;24.57;;;-1.10;99.90;;;;;;5071582;28;20090;-59
2021/12/23 00:12:45;;;;;;;38.07;25.30;;;-1.10;99.90;;;;;;5070650;28;20102;-61
2021/12/23 00:15:23;;;;;;;35.08;24.45;;;-1.10;99.90;;;;;;5069669;28;20040;-61
2021/12/23 00:25:37;;;;;;;39.53;24.98;;;-1.00;99.90;;;;;;5070788;28;20084;-59
2021/12/23 00:28:03;;;;;;;39.72;25.42;;;-1.00;99.90;;;;;;5088857;28;20072;-58
2021/12/23 00:30:29;;;;;;;41.85;26.20;;;-1.00;99.90;;;;;;5081988;28;20082;-56
2021/12/23 00:32:56;;;;;;;38.67;26.27;;;-1.00;99.90;;;;;;5090778;28;20496;-58
2021/12/23 00:35:23;;;;;;;39.05;25.13;;;-0.90;99.90;;;;;;5079663;28;20282;-58
2021/12/23 00:37:56;;;;;;;38.88;26.80;;;-1.00;99.90;;;;;;5090869;28;20042;-59
2021/12/23 00:40:21;;;;;;;37.60;25.15;;;-1.00;99.90;;;;;;5063369;28;20529;-59
2021/12/23 00:42:47;;;;;;;41.73;24.53;;;-0.90;99.90;;;;;;5088301;28;20086;-58
2021/12/23 00:45:12;;;;;;;36.93;24.57;;;-0.90;99.90;;;;;;5084364;28;20263;-59
2021/12/23 00:47:38;;;;;;;37.20;23.83;;;-0.90;99.90;;;;;;5078392;28;20036;-60
2021/12/23 00:50:05;;;;;;;38.53;23.93;;;-0.90;99.90;;;;;;5088776;28;20094;-61
2021/12/23 00:52:36;;;;;;;37.28;24.63;;;-0.90;99.90;;;;;;5073871;28;20040;-60
2021/12/23 00:55:07;;;;;;;34.60;23.45;;;-0.90;99.90;;;;;;5073728;28;20032;-59
2021/12/23 00:57:37;;;;;;;39.75;25.15;;;-0.90;99.90;;;;;;5088387;28;20039;-60
2021/12/23 01:00:05;;;;;;;37.42;26.90;;;-0.90;99.90;;;;;;5080815;28;20036;-59
2021/12/23 01:02:32;;;;;;;33.00;23.02;;;-0.90;99.90;;;;;;5088551;28;20038;-58
2021/12/23 01:04:59;;;;;;;41.35;25.35;;;-0.90;99.90;;;;;;5088449;28;20040;-58
2021/12/23 01:07:24;;;;;;;36.97;25.23;;;-0.90;99.90;;;;;;5070090;28;20129;-60
2021/12/23 01:09:50;;;;;;;34.03;21.67;;;-0.80;99.90;;;;;;5069983;28;20076;-60
2021/12/23 01:12:19;;;;;;;34.80;23.13;;;-0.80;99.90;;;;;;5090149;28;20043;-60
2021/12/23 01:14:58;;;;;;;35.90;21.05;;;-0.80;99.90;;;;;;5070820;28;20041;-61
2021/12/23 01:19:55;;;;;;;33.47;22.08;;;-0.80;99.90;;;;;;5082964;28;20130;-60
2021/12/23 01:22:21;;;;;;;30.40;20.42;;;-0.80;99.90;;;;;;5069713;28;20115;-60
2021/12/23 01:24:49;;;;;;;33.72;21.48;;;-0.70;99.90;;;;;;5072224;28;20136;-59
2021/12/23 01:27:15;;;;;;;30.17;19.92;;;-0.70;99.90;;;;;;5071023;28;20047;-58
2021/12/23 01:29:41;;;;;;;;;;;-0.70;99.90;;;;;;5070479;28;20043;-57
2021/12/23 01:32:07;;;;;;;35.38;21.92;;;-0.70;99.90;;;;;;5081120;28;20351;-59
2021/12/23 01:34:34;;;;;;;32.83;21.45;;;-0.70;99.90;;;;;;5072235;28;20086;-57
2021/12/23 01:37:05;;;;;;;36.92;23.55;;;-0.70;99.90;;;;;;5085131;28;20085;-59
2021/12/23 01:39:32;;;;;;;31.70;21.92;;;-0.70;99.90;;;;;;5090233;28;20341;-59
2021/12/23 01:41:58;;;;;;;35.53;22.88;;;-0.70;99.90;;;;;;5078822;28;20040;-59
2021/12/23 01:44:23;;;;;;;34.13;21.13;;;-0.70;99.90;;;;;;5070029;28;20097;-59
2021/12/23 01:46:49;;;;;;;33.53;21.37;;;-0.70;99.90;;;;;;5076573;28;20497;-58
2021/12/23 01:49:15;;;;;;;32.87;20.77;;;-0.70;99.90;;;;;;5069956;28;20044;-60
2021/12/23 01:51:40;;;;;;;35.55;22.85;;;-0.70;99.90;;;;;;5079604;28;20067;-59
2021/12/23 01:54:06;;;;;;;36.37;22.97;;;-0.70;99.90;;;;;;5089702;28;20046;-60
2021/12/23 01:56:32;;;;;;;29.83;20.43;;;-0.70;99.90;;;;;;5079332;28;20045;-60
2021/12/23 01:58:57;;;;;;;34.33;21.87;;;-0.70;99.90;;;;;;5071909;28;20037;-60
2021/12/23 02:01:24;;;;;;;33.70;21.83;;;-0.70;99.90;;;;;;5074116;28;20107;-60
2021/12/23 02:03:49;;;;;;;40.40;23.08;;;-0.70;99.90;;;;;;5073260;28;20036;-60
2021/12/23 02:06:15;;;;;;;38.50;23.73;;;-0.70;99.90;;;;;;5073135;28;20068;-57
2021/12/23 02:08:41;;;;;;;36.67;23.00;;;-0.70;99.90;;;;;;5072056;28;20037;-57
2021/12/23 02:11:09;;;;;;;32.42;20.88;;;-0.70;99.90;;;;;;5073601;28;20063;-58
2021/12/23 02:13:36;;;;;;;38.40;23.10;;;-0.70;99.90;;;;;;5072675;28;20516;-57
2021/12/23 02:16:02;;;;;;;;;;;-0.70;99.90;;;;;;5073688;28;20052;-59
2021/12/23 02:18:28;;;;;;;29.33;19.17;;;-0.60;99.90;;;;;;5073106;28;20328;-58
2021/12/23 02:20:55;;;;;;;32.67;20.55;;;-0.60;99.90;;;;;;5072821;28;20090;-58
2021/12/23 02:23:21;;;;;;;34.70;20.38;;;-0.60;99.90;;;;;;5072914;28;20040;-59
2021/12/23 02:25:47;;;;;;;33.15;20.88;;;-0.60;99.90;;;;;;5073136;28;20123;-59
2021/12/23 02:28:20;;;;;;;31.27;19.10;;;-0.60;99.90;;;;;;5071593;28;20178;-57
2021/12/23 02:30:51;;;;;;;29.80;19.48;;;-0.60;99.90;;;;;;5083654;28;20278;-57
2021/12/23 02:33:19;;;;;;;38.00;20.25;;;-0.60;99.90;;;;;;5090825;28;20032;-59
2021/12/23 02:35:44;;;;;;;37.60;23.80;;;-0.50;99.90;;;;;;5082395;28;20128;-57
2021/12/23 02:38:10;;;;;;;35.40;21.30;;;-0.60;99.90;;;;;;5074352;28;20052;-59
2021/12/23 02:40:39;;;;;;;33.93;21.93;;;-0.60;99.90;;;;;;5080236;28;20423;-59
2021/12/23 02:43:10;;;;;;;42.72;22.98;;;-0.60;99.90;;;;;;5091633;28;20547;-59
2021/12/23 02:45:35;;;;;;;38.10;23.05;;;-0.60;99.90;;;;;;5078719;28;20040;-57
2021/12/23 02:48:01;;;;;;;37.17;21.50;;;-0.60;99.90;;;;;;5074638;28;20446;-57
2021/12/23 02:50:27;;;;;;;33.97;21.52;;;-0.60;99.90;;;;;;5078271;28;20081;-59
2021/12/23 02:52:53;;;;;;;31.27;20.63;;;-0.70;99.90;;;;;;5090773;28;20488;-59
2021/12/23 02:55:19;;;;;;;42.67;22.83;;;-0.70;99.90;;;;;;5088350;28;20036;-58
2021/12/23 02:57:46;;;;;;;34.75;22.00;;;-0.70;99.90;;;;;;5072622;28;20036;-58
2021/12/23 03:00:13;;;;;;;34.25;21.52;;;-0.70;99.90;;;;;;5074442;28;20128;-58
2021/12/23 03:02:40;;;;;;;35.40;21.40;;;-0.70;99.90;;;;;;5074101;28;20043;-59
2021/12/23 03:05:07;;;;;;;31.83;20.63;;;-0.70;99.90;;;;;;5078555;28;20108;-59
2021/12/23 03:07:33;;;;;;;36.30;21.88;;;-0.70;99.90;;;;;;5092345;28;20039;-59
2021/12/23 03:09:59;;;;;;;33.53;20.05;;;-0.70;99.90;;;;;;5080724;28;20119;-60
2021/12/23 03:12:24;;;;;;;30.43;19.47;;;-0.70;99.90;;;;;;5091918;28;20071;-59
2021/12/23 03:14:50;;;;;;;29.73;18.63;;;-0.60;99.90;;;;;;5073240;28;20325;-58
2021/12/23 03:17:16;;;;;;;29.47;18.90;;;-0.60;99.90;;;;;;5074114;28;20109;-60
2021/12/23 03:19:41;;;;;;;26.90;19.50;;;-0.60;99.90;;;;;;5090925;28;20084;-59
2021/12/23 03:22:07;;;;;;;29.73;18.43;;;-0.60;99.90;;;;;;5091530;28;20408;-60
2021/12/23 03:24:33;;;;;;;32.30;20.27;;;-0.60;99.90;;;;;;5070522;28;20158;-60
2021/12/23 03:26:58;;;;;;;31.17;19.67;;;-0.60;99.90;;;;;;5071822;28;20036;-60
2021/12/23 03:29:24;;;;;;;29.60;19.40;;;-0.60;99.90;;;;;;5090215;28;20039;-60
2021/12/23 03:31:49;;;;;;;26.20;17.40;;;-0.60;99.90;;;;;;5090012;28;20174;-60
2021/12/23 03:34:15;;;;;;;29.87;20.10;;;-0.50;99.90;;;;;;5076137;28;20495;-60
2021/12/23 03:36:41;;;;;;;28.80;19.60;;;-0.60;99.90;;;;;;5071825;28;20086;-60
2021/12/23 03:39:06;;;;;;;33.47;22.63;;;-0.60;99.90;;;;;;5084333;28;20060;-60
2021/12/23 03:41:32;;;;;;;33.10;21.00;;;-0.60;99.90;;;;;;5074623;28;20036;-60
2021/12/23 03:43:57;;;;;;;29.77;21.53;;;-0.60;99.90;;;;;;5083658;28;20047;-61
2021/12/23 03:46:23;;;;;;;37.80;20.77;;;-0.60;99.90;;;;;;5089897;28;20501;-60
2021/12/23 03:48:49;;;;;;;32.40;20.60;;;-0.60;99.90;;;;;;5079046;28;20044;-60
2021/12/23 03:51:15;;;;;;;26.00;19.38;;;-0.60;99.90;;;;;;5071058;28;20040;-57
2021/12/23 03:53:40;;;;;;;29.83;21.07;;;-0.60;99.90;;;;;;5080201;28;20093;-59
2021/12/23 03:56:06;;;;;;;31.03;21.07;;;-0.50;99.90;;;;;;5091138;28;20078;-57
2021/12/23 03:58:32;;;;;;;34.97;21.17;;;-0.60;99.90;;;;;;5088254;28;20541;-59
2021/12/23 04:00:57;;;;;;;32.30;22.83;;;-0.60;99.90;;;;;;5070955;28;20040;-58
2021/12/23 04:03:23;;;;;;;27.47;18.47;;;-0.60;99.90;;;;;;5071178;28;20055;-57
2021/12/23 04:05:48;;;;;;;25.77;18.30;;;-0.60;99.90;;;;;;5070666;28;20058;-58
2021/12/23 04:08:14;;;;;;;29.23;19.67;;;-0.60;99.90;;;;;;5071191;28;20064;-60
2021/12/23 04:10:41;;;;;;;25.50;19.92;;;-0.50;99.90;;;;;;5071065;28;20692;-59
2021/12/23 04:13:06;;;;;;;31.63;19.48;;;-0.50;99.90;;;;;;5070742;28;20068;-57
2021/12/23 04:15:32;;;;;;;33.87;20.03;;;-0.50;99.90;;;;;;5070544;28;20462;-58
2021/12/23 04:17:58;;;;;;;28.60;19.13;;;-0.50;99.90;;;;;;5071012;28;20040;-60
2021/12/23 04:20:31;;;;;;;31.07;19.40;;;-0.50;99.90;;;;;;5070551;28;20043;-57
2021/12/23 04:22:57;;;;;;;33.53;20.17;;;-0.40;99.90;;;;;;5069682;28;20101;-57
2021/12/23 04:25:26;;;;;;;30.73;19.13;;;-0.40;99.90;;;;;;5070676;28;20044;-58
2021/12/23 04:27:55;;;;;;;27.45;19.00;;;-0.40;99.90;;;;;;5070420;28;20044;-59
2021/12/23 04:30:22;;;;;;;31.42;21.38;;;-0.40;99.90;;;;;;5069597;28;20177;-59
2021/12/23 04:32:48;;;;;;;;;;;-0.40;99.90;;;;;;5072789;28;20093;-59
2021/12/23 04:35:13;;;;;;;27.13;19.98;;;-0.40;99.90;;;;;;5091278;28;20010;-59
2021/12/23 04:37:39;;;;;;;29.73;20.48;;;-0.40;99.90;;;;;;5071887;28;20071;-56
2021/12/23 04:40:08;;;;;;;33.77;22.13;;;-0.40;99.90;;;;;;5088687;28;20475;-58
2021/12/23 04:42:34;;;;;;;31.60;20.58;;;-0.40;99.90;;;;;;5070266;28;20283;-58
2021/12/23 04:45:00;;;;;;;28.88;20.95;;;-0.40;99.90;;;;;;5089760;28;20047;-59
2021/12/23 04:47:25;;;;;;;31.33;20.43;;;-0.40;99.90;;;;;;5090596;28;20439;-60
2021/12/23 04:49:51;;;;;;;30.87;18.57;;;-0.40;99.90;;;;;;5087273;28;20059;-59
2021/12/23 04:52:16;;;;;;;31.43;20.43;;;-0.40;99.90;;;;;;5089008;28;20048;-58
2021/12/23 04:54:42;;;;;;;32.17;20.13;;;-0.30;99.90;;;;;;5074243;28;20501;-57
2021/12/23 04:57:07;;;;;;;32.40;19.57;;;-0.30;99.90;;;;;;5089320;28;20049;-60
2021/12/23 04:59:33;;;;;;;29.33;17.90;;;-0.30;99.90;;;;;;5077586;28;20097;-60
2021/12/23 05:01:59;;;;;;;27.43;17.83;;;-0.30;99.90;;;;;;5070612;28;20489;-58
2021/12/23 05:04:24;;;;;;;28.10;17.70;;;-0.30;99.90;;;;;;5082480;28;20511;-59
2021/12/23 05:06:50;;;;;;;22.63;15.83;;;-0.30;99.90;;;;;;5090358;28;20047;-60
2021/12/23 05:09:15;;;;;;;27.43;16.17;;;-0.20;99.90;;;;;;5079264;28;20090;-59
2021/12/23 05:11:41;;;;;;;26.20;16.37;;;-0.20;99.90;;;;;;5071018;28;20085;-60
2021/12/23 05:14:06;;;;;;;24.27;17.27;;;-0.20;99.90;;;;;;5069870;28;20036;-59
2021/12/23 05:16:32;;;;;;;23.50;16.90;;;-0.20;99.90;;;;;;5070187;28;20052;-60
2021/12/23 05:18:58;;;;;;;25.63;16.53;;;-0.20;99.90;;;;;;5077169;28;20024;-60
2021/12/23 05:21:23;;;;;;;32.20;16.93;;;-0.10;99.90;;;;;;5088470;28;20075;-60
2021/12/23 05:23:49;;;;;;;24.20;17.10;;;-0.20;99.90;;;;;;5083949;28;20079;-60
2021/12/23 05:26:15;;;;;;;24.33;15.43;;;-0.10;99.90;;;;;;5070566;28;20090;-61
2021/12/23 05:28:40;;;;;;;24.83;15.70;;;-0.10;99.90;;;;;;5075423;28;20395;-59
2021/12/23 05:31:06;;;;;;;26.30;16.70;;;-0.10;99.90;;;;;;5087881;28;20162;-59
2021/12/23 05:33:32;;;;;;;27.47;16.60;;;-0.10;99.90;;;;;;5089620;28;20036;-59
2021/12/23 05:35:58;;;;;;;25.23;14.88;;;-0.10;99.90;;;;;;5073147;28;20094;-59
2021/12/23 05:38:24;;;;;;;25.17;15.33;;;0.00;99.90;;;;;;5074375;28;20048;-59
2021/12/23 05:40:50;;;;;;;23.63;17.42;;;0.00;99.90;;;;;;5086814;28;20036;-60
2021/12/23 05:43:16;;;;;;;24.57;16.03;;;-0.10;99.90;;;;;;5074875;28;20039;-58
2021/12/23 05:45:41;;;;;;;28.13;17.47;;;-0.10;99.90;;;;;;5075936;28;20518;-57
2021/12/23 05:48:07;;;;;;;25.60;16.20;;;-0.10;99.90;;;;;;5074110;28;20032;-58
2021/12/23 05:50:32;;;;;;;23.50;15.40;;;-0.10;99.90;;;;;;5073630;28;20433;-59
2021/12/23 05:52:58;;;;;;;29.13;17.43;;;-0.10;99.90;;;;;;5072802;28;20040;-59
2021/12/23 05:55:24;;;;;;;25.67;17.20;;;-0.10;99.90;;;;;;5076130;28;20174;-58
2021/12/23 05:57:50;;;;;;;21.37;16.37;;;0.00;99.90;;;;;;5056717;28;20078;-57
2021/12/23 06:00:18;;;;;;;;;;;0.00;99.90;;;;;;5074309;28;20089;-58
2021/12/23 06:02:44;;;;;;;;;;;0.00;99.90;;;;;;5073470;28;19916;-58
2021/12/23 06:05:10;;;;;;;27.15;16.73;;;0.00;99.90;;;;;;5073390;28;20300;-58
2021/12/23 06:07:35;;;;;;;29.70;17.73;;;0.00;99.90;;;;;;5073080;28;20037;-58
2021/12/23 06:10:02;;;;;;;25.53;16.83;;;0.00;99.90;;;;;;5073118;28;20519;-57
2021/12/23 06:12:28;;;;;;;29.08;17.50;;;0.10;99.90;;;;;;5073389;28;20120;-56
2021/12/23 06:14:53;;;;;;;28.80;17.90;;;0.00;99.90;;;;;;5073499;28;20072;-59
2021/12/23 06:17:19;;;;;;;27.33;17.67;;;0.00;99.90;;;;;;5073465;28;20066;-58
2021/12/23 06:19:44;;;;;;;31.03;18.83;;;0.00;99.90;;;;;;5073288;28;20090;-57
2021/12/23 06:22:13;;;;;;;29.97;18.97;;;0.10;99.90;;;;;;5072973;28;20113;-56
2021/12/23 06:24:39;;;;;;;30.55;18.73;;;0.10;99.90;;;;;;5072618;28;20053;-59
2021/12/23 06:27:05;;;;;;;;;;;0.10;99.90;;;;;;5073441;28;20115;-58
2021/12/23 06:29:30;;;;;;;26.95;18.63;;;0.10;99.90;;;;;;5074370;28;20011;-56
2021/12/23 06:31:56;;;;;;;29.47;19.63;;;0.10;99.90;;;;;;5079541;28;20024;-59
2021/12/23 06:34:21;;;;;;;27.50;19.53;;;0.10;99.90;;;;;;5091830;28;20043;-59
2021/12/23 06:36:47;;;;;;;27.10;20.23;;;0.10;99.90;;;;;;5087872;28;20120;-59
2021/12/23 06:39:13;;;;;;;31.60;20.13;;;0.10;99.90;;;;;;5072499;28;20036;-56
2021/12/23 06:41:39;;;;;;;32.60;19.40;;;0.10;99.90;;;;;;5078778;28;20288;-59
2021/12/23 06:44:05;;;;;;;33.42;19.88;;;0.10;99.90;;;;;;5084050;28;20032;-59
2021/12/23 06:46:30;;;;;;;31.67;19.60;;;0.20;99.90;;;;;;5071530;28;20539;-59
2021/12/23 06:48:56;;;;;;;32.63;20.47;;;0.20;99.90;;;;;;5070013;28;20478;-59
2021/12/23 06:51:21;;;;;;;28.93;19.27;;;0.20;99.90;;;;;;5073973;28;20029;-59
2021/12/23 06:53:47;;;;;;;30.17;21.00;;;0.20;99.90;;;;;;5057755;28;20106;-59
2021/12/23 06:56:17;;;;;;;32.23;19.90;;;0.20;99.90;;;;;;5072348;28;20182;-58
2021/12/23 06:58:47;;;;;;;30.10;19.27;;;0.20;99.90;;;;;;5074505;28;20089;-59
2021/12/23 07:01:15;;;;;;;30.65;19.75;;;0.20;99.90;;;;;;5072635;28;20048;-60
2021/12/23 07:06:26;;;;;;;30.25;19.40;;;0.20;99.90;;;;;;5052653;28;20049;-60
2021/12/23 07:08:54;;;;;;;;;;;0.10;99.90;;;;;;5072177;28;20044;-60
2021/12/23 07:11:19;;;;;;;32.92;20.75;;;0.20;99.90;;;;;;5072502;28;19920;-61
2021/12/23 07:13:45;;;;;;;31.93;19.97;;;0.20;99.90;;;;;;5070007;28;20098;-60
2021/12/23 07:16:12;;;;;;;31.67;21.47;;;0.20;99.90;;;;;;5067293;28;20028;-60
2021/12/23 07:18:37;;;;;;;31.25;21.00;;;0.20;99.90;;;;;;5053586;28;20041;-60
2021/12/23 07:21:03;;;;;;;33.33;20.53;;;0.20;99.90;;;;;;5064327;28;20186;-60
2021/12/23 07:23:28;;;;;;;34.03;22.23;;;0.20;99.90;;;;;;5072103;28;20106;-60
2021/12/23 07:25:54;;;;;;;33.57;22.23;;;0.20;99.90;;;;;;5069553;28;20040;-58
2021/12/23 07:28:19;;;;;;;31.90;20.07;;;0.20;99.90;;;;;;5068073;28;20046;-60
2021/12/23 07:30:45;;;;;;;34.80;20.17;;;0.20;99.90;;;;;;5071921;28;20056;-59
2021/12/23 07:33:11;;;;;;;34.35;22.63;;;0.20;99.90;;;;;;5071393;28;20124;-59
2021/12/23 07:35:36;;;;;;;33.13;21.57;;;0.20;99.90;;;;;;5071857;28;20146;-59
2021/12/23 07:38:02;;;;;;;33.83;21.80;;;0.20;99.90;;;;;;5084580;28;20044;-58
2021/12/23 07:40:29;;;;;;;36.75;23.63;;;0.30;99.90;;;;;;5079092;28;20052;-59
2021/12/23 07:43:09;;;;;;;31.65;21.35;;;0.20;99.90;;;;;;5086816;28;20085;-57
2021/12/23 07:45:35;;;;;;;32.15;21.80;;;0.30;99.90;;;;;;5083612;28;20040;-59
2021/12/23 07:48:00;;;;;;;40.60;22.48;;;0.30;99.90;;;;;;5078572;28;20043;-59
2021/12/23 07:50:26;;;;;;;39.43;23.50;;;0.30;99.90;;;;;;5076224;28;20032;-59
2021/12/23 07:52:52;;;;;;;39.70;24.03;;;0.30;99.90;;;;;;5083470;28;20063;-59
2021/12/23 07:55:18;;;;;;;39.83;24.38;;;0.30;99.90;;;;;;5070752;28;20301;-59
2021/12/23 07:57:44;;;;;;;35.90;22.77;;;0.30;99.90;;;;;;5071168;28;20032;-59
2021/12/23 08:00:10;;;;;;;35.30;22.27;;;0.30;99.90;;;;;;5062305;28;20071;-60
2021/12/23 08:02:36;;;;;;;37.63;23.55;;;0.30;99.90;;;;;;5076782;28;20051;-59
2021/12/23 08:05:01;;;;;;;38.93;24.50;;;0.30;99.90;;;;;;5078152;28;20040;-60
2021/12/23 08:07:27;;;;;;;34.08;22.02;;;0.40;99.90;;;;;;5090317;28;20074;-59
2021/12/23 08:09:53;;;;;;;35.77;23.03;;;0.40;99.90;;;;;;5091451;28;20122;-59
2021/12/23 08:12:19;;;;;;;38.97;24.77;;;0.40;99.90;;;;;;5091198;28;20044;-60
2021/12/23 08:14:45;;;;;;;39.03;24.40;;;0.40;99.90;;;;;;5091554;28;20038;-60
2021/12/23 08:17:10;;;;;;;40.00;24.27;;;0.40;99.90;;;;;;5091714;28;20055;-59
2021/12/23 08:19:36;;;;;;;40.80;23.70;;;0.40;99.90;;;;;;5091377;28;20051;-59
2021/12/23 08:22:01;;;;;;;41.63;24.20;;;0.40;99.90;;;;;;5091196;28;20504;-57
2021/12/23 08:24:27;;;;;;;40.53;25.60;;;0.40;99.90;;;;;;5090849;28;20552;-60
2021/12/23 08:26:54;;;;;;;42.37;26.73;;;0.40;99.90;;;;;;5091065;28;20050;-59
2021/12/23 08:29:20;;;;;;;40.67;26.35;;;0.40;99.90;;;;;;5091109;28;20036;-57
2021/12/23 08:31:54;;;;;;;37.45;22.67;;;0.40;99.90;;;;;;5090110;28;20473;-59
2021/12/23 08:34:24;;;;;;;42.70;26.58;;;0.40;99.90;;;;;;5091070;28;20036;-60
2021/12/23 08:36:51;;;;;;;40.65;26.60;;;0.40;99.90;;;;;;5091258;28;20435;-60
2021/12/23 08:39:18;;;;;;;45.47;26.73;;;0.40;99.90;;;;;;5090987;28;20093;-59
2021/12/23 08:41:44;;;;;;;44.00;27.05;;;0.40;99.90;;;;;;5090969;28;20071;-59
2021/12/23 08:44:10;;;;;;;43.25;27.85;;;0.40;99.90;;;;;;5090019;28;20062;-59
2021/12/23 08:46:36;;;;;;;50.95;30.05;;;0.40;99.90;;;;;;5072649;28;20059;-57
2021/12/23 08:49:03;;;;;;;44.47;26.17;;;0.40;99.90;;;;;;5089476;28;20059;-59
2021/12/23 08:51:28;;;;;;;;;;;0.40;99.90;;;;;;5091397;28;20400;-59
2021/12/23 08:53:57;;;;;;;46.67;27.17;;;0.30;99.90;;;;;;5090608;28;19920;-59
2021/12/23 08:56:22;;;;;;;49.65;28.23;;;0.40;99.90;;;;;;5090491;28;20044;-60
2021/12/23 08:58:48;;;;;;;52.23;30.13;;;0.40;99.90;;;;;;5090143;28;20044;-60
2021/12/23 09:01:13;;;;;;;46.87;28.97;;;0.40;99.90;;;;;;5090688;28;20039;-59
2021/12/23 09:03:39;;;;;;;39.77;25.80;;;0.40;99.90;;;;;;5090382;28;20043;-59
2021/12/23 09:06:05;;;;;;;44.43;27.97;;;0.40;99.90;;;;;;5090346;28;20110;-59
2021/12/23 09:08:31;;;;;;;43.80;26.77;;;0.40;99.90;;;;;;5090394;28;20462;-60
2021/12/23 09:10:58;;;;;;;48.10;27.45;;;0.40;99.90;;;;;;5090458;28;20062;-59
2021/12/23 09:13:25;;;;;;;48.30;28.23;;;0.40;99.90;;;;;;5089841;28;20039;-60
2021/12/23 09:15:51;;;;;;;47.08;27.45;;;0.40;99.90;;;;;;5090360;28;20126;-59
2021/12/23 09:18:18;;;;;;;45.20;28.77;;;0.40;99.90;;;;;;5089562;28;20392;-60
2021/12/23 09:20:45;;;;;;;48.25;28.23;;;0.40;99.90;;;;;;5090311;28;20051;-59
2021/12/23 09:23:10;;;;;;;45.42;26.60;;;0.40;99.90;;;;;;5090460;28;20107;-59
2021/12/23 09:25:38;;;;;;;47.57;28.53;;;0.40;99.90;;;;;;5090015;28;20043;-58
2021/12/23 09:28:18;;;;;;;48.35;29.05;;;0.40;99.90;;;;;;5090117;28;20044;-59
2021/12/23 09:33:28;;;;;;;60.10;29.33;;;0.40;99.90;;;;;;5090155;28;20076;-59
2021/12/23 09:35:54;;;;;;;49.67;28.77;;;0.40;99.90;;;;;;5089971;28;20072;-59
2021/12/23 09:38:27;;;;;;;50.40;29.30;;;0.40;99.90;;;;;;5089937;28;20040;-59
2021/12/23 09:40:58;;;;;;;53.63;30.88;;;0.40;99.90;;;;;;5085367;28;20040;-60
2021/12/23 09:43:26;;;;;;;53.58;29.88;;;0.40;99.90;;;;;;5071383;28;20040;-59
2021/12/23 09:45:52;;;;;;;45.60;27.63;;;0.40;99.90;;;;;;5066575;28;20040;-59
2021/12/23 09:48:21;;;;;;;52.33;28.83;;;0.40;99.90;;;;;;5081467;28;20047;-60
2021/12/23 09:50:50;;;;;;;49.83;30.45;;;0.40;99.90;;;;;;5072704;28;20482;-60
2021/12/23 09:53:18;;;;;;;51.15;29.63;;;0.50;99.90;;;;;;5070032;28;20086;-59
2021/12/23 09:55:44;;;;;;;53.92;31.92;;;0.50;99.90;;;;;;5068266;28;20523;-61
2021/12/23 09:58:10;;;;;;;54.88;32.78;;;0.50;99.90;;;;;;5068618;28;20079;-60
2021/12/23 10:00:38;;;;;;;57.83;32.33;;;0.50;99.90;;;;;;5070574;28;20036;-60
2021/12/23 10:03:06;;;;;;;53.10;31.58;;;0.50;99.90;;;;;;5075142;28;20063;-58
2021/12/23 10:05:34;;;;;;;50.42;30.92;;;0.50;99.90;;;;;;5072570;28;20041;-59
2021/12/23 10:08:02;;;;;;;54.95;30.73;;;0.50;99.90;;;;;;5068806;28;20041;-59
2021/12/23 10:10:34;;;;;;;55.50;33.25;;;0.60;99.90;;;;;;5072945;28;20120;-58
2021/12/23 10:38:40;;;;;;;57.10;32.70;;;0.70;99.90;;;;;;5070456;28;20044;-57
2021/12/23 10:41:19;;;;;;;53.55;31.67;;;0.70;99.90;;;;;;5084606;28;20504;-57
2021/12/23 10:43:53;;;;;;;51.97;32.20;;;0.70;99.90;;;;;;5067801;28;20036;-59
2021/12/23 10:46:23;;;;;;;57.78;32.00;;;0.70;99.90;;;;;;5075104;28;20409;-59
2021/12/23 10:49:28;;;;;;;60.85;32.90;;;0.70;99.90;;;;;;5078994;28;20040;-59
2021/12/23 10:52:02;;;;;;;61.25;34.08;;;0.70;99.90;;;;;;5076960;28;20039;-58
2021/12/23 11:00:35;;;;;;;54.60;32.85;;;0.70;99.90;;;;;;5062701;28;20048;-60
2021/12/23 11:03:09;;;;;;;54.03;33.10;;;0.70;99.90;;;;;;5072409;28;20040;-60
2021/12/23 11:05:43;;;;;;;60.42;34.13;;;0.70;99.90;;;;;;5054620;28;20302;-59
2021/12/23 11:39:24;;;;;;;59.13;33.58;;;0.70;99.90;;;;;;5079998;28;20068;-58
2021/12/23 11:41:32;;;;;;;62.35;33.78;;;0.70;99.90;;;;;;5068417;28;20044;-56
2021/12/23 11:44:00;;;;;;;60.47;35.95;;;0.80;99.90;;;;;;5077191;28;20051;-53
2021/12/23 11:46:44;;;;;;;62.72;36.47;;;0.80;99.90;;;;;;5078394;28;20473;-56
2021/12/23 11:49:13;;;;;;;64.70;32.83;;;0.80;99.90;;;;;;5079243;28;20444;-57
2021/12/23 11:54:06;;;;;;;59.33;33.55;;;0.80;99.90;;;;;;5082522;28;20110;-59
2021/12/23 11:56:36;;;;;;;65.95;36.25;;;0.90;99.90;;;;;;5091730;28;20044;-57
2021/12/23 11:59:03;;;;;;;59.13;35.33;;;0.80;99.90;;;;;;5058022;28;20571;-59
2021/12/23 12:01:39;;;;;;;60.17;34.58;;;0.80;99.90;;;;;;5057230;28;20039;-58
2021/12/23 12:04:07;;;;;;;62.05;35.30;;;0.80;99.90;;;;;;5057636;28;20056;-58
2021/12/23 12:06:35;;;;;;;62.85;34.63;;;0.80;99.90;;;;;;5069628;28;20381;-60
2021/12/23 12:09:17;;;;;;;63.42;35.72;;;0.80;99.90;;;;;;5074666;28;20531;-56
2021/12/23 12:12:09;;;;;;;57.92;33.65;;;0.90;99.90;;;;;;5070985;28;20047;-56
2021/12/23 12:14:40;;;;;;;67.45;36.00;;;0.90;99.90;;;;;;5067365;28;20050;-57
2021/12/23 12:17:33;;;;;;;61.03;34.25;;;0.90;99.90;;;;;;5070691;28;20123;-59
2021/12/23 12:20:07;;;;;;;62.83;34.83;;;0.90;99.90;;;;;;5065934;28;20059;-58
2021/12/23 12:22:54;;;;;;;72.85;36.58;;;0.90;99.90;;;;;;5070523;28;20044;-59
2021/12/23 12:25:23;;;;;;;62.28;32.17;;;0.90;99.90;;;;;;5071040;28;20047;-60
2021/12/23 12:28:12;;;;;;;68.80;35.90;;;0.90;99.90;;;;;;5070764;28;20053;-58
2021/12/23 12:30:48;;;;;;;62.03;34.85;;;0.90;99.90;;;;;;5062619;28;20044;-57
2021/12/23 12:33:26;;;;;;;65.07;34.95;;;0.90;99.90;;;;;;5068744;28;20040;-58
2021/12/23 12:36:03;;;;;;;63.55;34.17;;;0.90;99.90;;;;;;5070849;28;20044;-59
2021/12/23 12:38:36;;;;;;;61.90;34.33;;;0.90;99.90;;;;;;5071043;28;20048;-57
2021/12/23 12:41:17;;;;;;;63.90;34.95;;;0.90;99.90;;;;;;5071090;28;20134;-58
2021/12/23 12:43:46;;;;;;;68.28;35.47;;;0.90;99.90;;;;;;5069798;28;20394;-56
2021/12/23 12:46:22;;;;;;;61.42;35.28;;;0.90;99.90;;;;;;5070703;28;20048;-58
2021/12/23 12:48:57;;;;;;;65.10;35.55;;;0.90;99.90;;;;;;5073121;28;20043;-59
2021/12/23 12:51:27;;;;;;;64.40;35.75;;;0.90;99.90;;;;;;5077783;28;20518;-57
2021/12/23 12:54:02;;;;;;;62.00;35.15;;;1.00;99.90;;;;;;5085543;28;20032;-59
2021/12/23 12:56:29;;;;;;;60.58;34.92;;;1.00;99.90;;;;;;5050424;28;20080;-58
2021/12/23 12:58:55;;;;;;;;;;;1.00;99.90;;;;;;5058464;28;20029;-60
2021/12/23 13:01:30;;;;;;;62.85;31.98;;;1.00;99.90;;;;;;5070453;28;19962;-59
2021/12/23 13:03:56;;;;;;;61.45;34.40;;;1.00;99.90;;;;;;5068727;28;20124;-60
2021/12/23 13:06:26;;;;;;;63.08;35.78;;;1.00;99.90;;;;;;5068830;28;20090;-59
2021/12/23 13:08:52;;;;;;;63.80;36.17;;;1.10;99.90;;;;;;5068709;28;20044;-59
2021/12/23 13:11:21;;;;;;;57.80;34.47;;;1.10;99.90;;;;;;5070137;28;20040;-59
2021/12/23 13:13:59;;;;;;;64.97;36.22;;;1.10;99.90;;;;;;5068468;28;20120;-60
2021/12/23 13:16:25;;;;;;;60.85;34.17;;;1.10;99.90;;;;;;5069159;28;20119;-56
2021/12/23 13:19:11;;;;;;;64.07;35.55;;;1.10;99.90;;;;;;5070261;28;20037;-58
2021/12/23 13:21:45;;;;;;;63.03;35.58;;;1.10;99.90;;;;;;5074632;28;20490;-58
2021/12/23 13:24:12;;;;;;;61.72;33.13;;;1.10;99.90;;;;;;5079843;28;20041;-57
2021/12/23 13:26:38;;;;;;;57.15;35.85;;;1.10;99.90;;;;;;5079701;28;20124;-56
2021/12/23 13:29:06;;;;;;;61.92;33.83;;;1.10;99.90;;;;;;5072909;28;20037;-59
2021/12/23 13:31:33;;;;;;;62.10;34.47;;;1.10;99.90;;;;;;5069775;28;20301;-56
2021/12/23 13:34:03;;;;;;;62.70;34.20;;;1.10;99.90;;;;;;5069811;28;20382;-58
2021/12/23 13:36:40;;;;;;;60.55;33.55;;;1.20;99.90;;;;;;5068501;28;20489;-59
2021/12/23 13:39:11;;;;;;;60.50;32.92;;;1.10;99.90;;;;;;5071135;28;20047;-59
2021/12/23 13:41:41;;;;;;;60.15;32.13;;;1.10;99.90;;;;;;5079050;28;20408;-57
2021/12/23 13:44:17;;;;;;;61.22;33.38;;;1.10;99.90;;;;;;5079075;28;20033;-58
2021/12/23 13:46:45;;;;;;;55.53;31.83;;;1.10;99.90;;;;;;5075319;28;20074;-60
2021/12/23 13:49:12;;;;;;;60.08;32.97;;;1.20;99.90;;;;;;5073622;28;20046;-60
2021/12/23 13:51:40;;;;;;;;;;;1.20;99.90;;;;;;5081291;28;20115;-57
2021/12/23 13:54:07;;;;;;;66.57;35.67;;;1.20;99.90;;;;;;5076610;28;19916;-57
2021/12/23 13:56:35;;;;;;;55.78;32.38;;;1.20;99.90;;;;;;5082668;28;20094;-58
2021/12/23 13:59:15;;;;;;;56.95;33.17;;;1.20;99.90;;;;;;5083379;28;20748;-59